Latest Weather Observations for Kowen Forest

IDN60801

Issued at 5:42 pm EST Friday 1 July 2022 (issued every 10 minutes, with the page automatically refreshed every 10 minutes)

About weather observations | Map of weather stations | Latest weather observations for NSW | Other Formats
Station Details ID: 250071 Name: KOWEN FOREST (PCS) Lat: -35.31 Lon: 149.32 Height: 720.0 m

Portable automatic weather stations (PAWS) are operated by other organisations, such as Fire and Emergency Services, and are included here by agreement. Portable stations may be deployed to a location for a short period and their location may be subject to change without notice. Wind observations from these stations are provided from heights of either three (3) or ten (10) metres above ground level (AGL).

Data from the previous 72 hours. | See also: Recent months for locations in New South Wales
Date/Time
EST
Temp
°C
App
Temp
°C
Dew
Point
°C
Rel
Hum
%
Delta-T
°C
Wind Press
QNH
hPa
Press
MSL
hPa
Rain since
9am
mm
Dir  Spd
km/h
Gust
km/h
Spd
kts
Gust
kts
01/05:30pm 5.4 3.4 4.6 95 0.4 SSE 4 6 2 3 - - 1.0
01/05:20pm 5.4 3.4 4.5 94 0.4 ESE 4 4 2 2 - - 1.0
01/05:10pm 5.5 3.5 4.5 93 0.4 ESE 4 4 2 2 - - 1.0
01/05:00pm 5.5 3.5 4.5 93 0.4 SE 4 6 2 3 - - 1.0
01/04:50pm 5.6 3.2 4.5 93 0.5 SSE 6 7 3 4 - - 0.8
01/04:40pm 5.6 3.3 4.6 93 0.4 SSE 6 7 3 4 - - 0.8
01/04:30pm 5.7 3.4 4.6 93 0.5 SSE 6 7 3 4 - - 0.8
01/04:20pm 5.8 3.5 4.6 92 0.5 SSE 6 9 3 5 - - 0.8
01/04:10pm 5.8 3.3 4.7 93 0.5 SSE 7 9 4 5 - - 0.8
01/04:00pm 5.8 3.9 4.9 94 0.4 SSE 4 6 2 3 - - 0.8
01/03:50pm 5.9 4.0 5.0 94 0.4 SSE 4 6 2 3 - - 0.8
01/03:40pm 5.9 4.0 5.0 94 0.4 SSE 4 6 2 3 - - 0.8
01/03:30pm 5.9 3.6 4.9 93 0.5 SSE 6 7 3 4 - - 0.8
01/03:20pm 5.9 3.6 4.9 93 0.5 SSE 6 7 3 4 - - 0.8
01/03:10pm 5.9 3.4 4.7 92 0.5 SE 7 11 4 6 - - 0.8
01/03:00pm 6.0 3.5 4.8 92 0.5 SE 7 9 4 5 - - 0.8
01/02:50pm 6.1 3.2 4.8 91 0.6 SE 9 13 5 7 - - 0.8
01/02:40pm 6.2 3.0 4.9 91 0.6 SE 11 13 6 7 - - 0.8
01/02:30pm 6.2 3.4 5.0 92 0.5 SE 9 13 5 7 - - 0.8
01/02:20pm 6.2 4.0 5.1 93 0.5 SE 6 9 3 5 - - 0.6
01/02:10pm 6.3 3.1 5.0 91 0.6 SE 11 13 6 7 - - 0.6
01/02:00pm 6.5 3.7 5.1 91 0.6 SE 9 11 5 6 - - 0.6
01/01:50pm 6.6 3.5 5.5 93 0.5 SSE 11 20 6 11 - - 0.6
01/01:40pm 6.7 4.6 5.9 95 0.4 S 6 7 3 4 - - 0.6
01/01:30pm 6.7 5.0 6.1 96 0.3 SSW 4 6 2 3 - - 0.6
01/01:20pm 6.7 4.6 5.8 94 0.4 S 6 6 3 3 - - 0.6
01/01:10pm 6.8 5.5 6.1 95 0.3 SE 2 4 1 2 - - 0.6
01/01:00pm 6.7 5.0 6.0 95 0.3 S 4 6 2 3 - - 0.6
01/12:50pm 6.6 4.9 5.9 95 0.3 SSW 4 4 2 2 - - 0.6
01/12:40pm 6.4 4.7 5.7 95 0.3 SW 4 4 2 2 - - 0.6
01/12:30pm 6.2 4.8 5.5 95 0.3 SW 2 2 1 1 - - 0.4
01/12:20pm 6.1 4.7 5.3 95 0.4 S 2 2 1 1 - - 0.4
01/12:10pm 6.0 4.5 5.1 94 0.4 ESE 2 4 1 2 - - 0.4
01/12:00pm 6.0 4.1 4.9 93 0.5 ESE 4 6 2 3 - - 0.4
01/11:50am 5.9 3.6 4.8 93 0.5 SE 6 7 3 4 - - 0.4
01/11:40am 6.0 4.1 4.8 92 0.5 SE 4 6 2 3 - - 0.4
01/11:30am 6.0 4.5 5.0 93 0.5 SSE 2 4 1 2 - - 0.4
01/11:20am 6.0 4.5 5.0 93 0.5 SSE 2 4 1 2 - - 0.4
01/11:10am 5.9 4.0 4.8 93 0.5 SE 4 6 2 3 - - 0.4
01/11:00am 6.0 4.4 4.7 91 0.6 E 2 4 1 2 - - 0.4
01/10:50am 6.0 4.4 4.7 91 0.6 ENE 2 4 1 2 - - 0.4
01/10:40am 6.0 4.5 4.8 92 0.5 NE 2 2 1 1 - - 0.2
01/10:30am 5.8 4.3 4.8 93 0.5 N 2 2 1 1 - - 0.2
01/10:20am 5.6 4.0 4.4 92 0.5 NNE 2 2 1 1 - - 0.2
01/10:10am 5.4 3.7 4.1 91 0.6 NNE 2 4 1 2 - - 0.2
01/10:00am 5.3 3.3 4.2 93 0.5 NE 4 4 2 2 - - 0.2
01/09:50am 5.2 2.8 4.2 93 0.4 NNE 6 6 3 3 - - 0.2
01/09:40am 5.1 3.4 4.2 94 0.4 NNE 2 4 1 2 - - 0.2
01/09:30am 4.9 3.2 4.2 95 0.3 E 2 4 1 2 - - 0.2
01/09:20am 4.7 2.7 4.2 97 0.2 E 4 4 2 2 - - 0.2
01/09:10am 4.6 2.6 4.2 97 0.2 SE 4 4 2 2 - - 0.0
01/09:00am 4.4 2.0 4.1 98 0.1 SE 6 6 3 3 - - 1.6
01/08:50am 4.3 2.2 4.0 98 0.1 SSW 4 4 2 2 - - 1.6
01/08:40am 4.2 2.5 4.0 99 0.1 E 2 4 1 2 - - 1.6
01/08:30am 4.1 1.6 3.8 98 0.1 NE 6 6 3 3 - - 1.4
01/08:20am 4.0 1.5 3.7 98 0.1 NE 6 6 3 3 - - 1.4
01/08:10am 3.9 1.4 3.6 98 0.1 NNE 6 6 3 3 - - 1.2
01/08:00am 3.9 1.7 3.5 97 0.2 NNE 4 6 2 3 - - 1.2
01/07:50am 3.9 2.1 3.4 97 0.2 NNE 2 4 1 2 - - 1.0
01/07:40am 3.9 2.1 3.3 96 0.3 SW 2 4 1 2 - - 0.8
01/07:30am 3.9 1.7 3.3 96 0.3 W 4 4 2 2 - - 0.6
01/07:20am 3.8 2.0 3.4 97 0.2 SW 2 4 1 2 - - 0.4
01/07:10am 3.7 1.9 3.4 98 0.1 SW 2 4 1 2 - - 0.2
01/07:00am 3.8 2.0 3.5 98 0.1 S 2 4 1 2 - - 0.2
01/06:50am 3.6 1.4 3.3 98 0.1 ENE 4 4 2 2 - - 0.2
01/06:40am 3.5 1.3 3.1 97 0.2 NNE 4 4 2 2 - - 0.2
01/06:30am 3.4 1.1 3.0 97 0.2 NNE 4 6 2 3 - - 0.0
01/06:20am 3.6 1.4 3.2 97 0.2 E 4 4 2 2 - - 0.0
01/06:10am 3.4 1.5 2.9 97 0.2 SW 2 2 1 1 - - 0.0
01/06:00am 3.3 1.7 2.7 96 0.3 CALM 0 2 0 1 - - 0.0
01/05:50am 3.3 1.4 2.6 95 0.3 WSW 2 2 1 1 - - 0.0
01/05:40am 3.4 1.5 2.7 95 0.3 S 2 4 1 2 - - 0.0
01/05:30am 3.6 1.7 2.6 93 0.4 SSE 2 4 1 2 - - 0.0
01/05:20am 4.5 2.2 2.9 89 0.7 E 4 6 2 3 - - 0.0
01/05:10am 4.5 1.9 3.0 90 0.6 ENE 6 6 3 3 - - 0.0
01/05:00am 4.5 1.7 2.9 89 0.7 ENE 7 7 4 4 - - 0.0
01/04:50am 4.0 0.7 2.5 90 0.6 E 9 11 5 6 - - 0.0
01/04:40am 2.5 0.1 2.2 98 0.1 ENE 4 9 2 5 - - 0.0
01/04:30am 2.4 0.0 2.0 97 0.2 N 4 6 2 3 - - 0.0
01/04:20am 2.5 -0.3 2.1 97 0.2 E 6 7 3 4 - - 0.0
01/04:10am 2.1 -0.8 1.7 97 0.2 NE 6 7 3 4 - - 0.0
01/04:00am 2.1 -0.4 1.6 96 0.2 NE 4 6 2 3 - - 0.0
01/03:50am 2.2 0.1 1.7 96 0.2 NNE 2 4 1 2 - - 0.0
01/03:40am 2.1 -0.8 1.7 97 0.2 NE 6 7 3 4 - - 0.0
01/03:30am 2.0 -0.5 1.6 97 0.2 NNW 4 6 2 3 - - 0.0
01/03:20am 2.0 -0.5 1.7 98 0.1 E 4 6 2 3 - - 0.0
01/03:10am 1.8 -0.7 1.4 97 0.2 NNE 4 4 2 2 - - 0.0
01/03:00am 1.8 -0.3 1.4 97 0.2 W 2 2 1 1 - - 0.0
01/02:50am 1.8 -0.4 1.3 96 0.2 S 2 2 1 1 - - 0.0
01/02:40am 1.9 -0.6 1.4 96 0.2 WSW 4 6 2 3 - - 0.0
01/02:30am 2.0 -0.9 1.6 97 0.2 S 6 7 3 4 - - 0.0
01/02:20am 1.8 -0.7 1.4 97 0.2 NE 4 6 2 3 - - 0.0
01/02:10am 1.6 -1.3 1.2 97 0.2 NE 6 7 3 4 - - 0.0
01/02:00am 1.3 -1.3 0.9 97 0.2 NE 4 6 2 3 - - 0.0
01/01:50am 0.8 -1.9 0.4 97 0.2 NNE 4 4 2 2 - - 0.0
01/01:40am 0.8 -2.3 0.4 97 0.2 SW 6 7 3 4 - - 0.0
01/01:30am 1.1 -1.5 0.7 97 0.2 SE 4 7 2 4 - - 0.0
01/01:20am 0.9 -1.8 0.6 98 0.1 ENE 4 6 2 3 - - 0.0
01/01:10am 0.5 -2.6 0.2 98 0.1 NE 6 6 3 3 - - 0.0
01/01:00am 0.3 -2.8 0.0 98 0.1 NNE 6 7 3 4 - - 0.0
01/12:50am -0.5 -3.9 -0.9 97 0.1 NE 7 7 4 4 - - 0.0
01/12:40am -0.5 -3.0 -1.0 96 0.2 SE 2 4 1 2 - - 0.0
01/12:30am -0.4 -2.9 -1.0 96 0.2 S 2 4 1 2 - - 0.0
01/12:20am -0.1 -2.9 -0.6 96 0.2 NNE 4 9 2 5 - - 0.0
01/12:10am -0.1 -3.9 -0.6 96 0.2 NE 9 11 5 6 - - 0.0
01/12:00am 0.3 -3.0 -0.1 97 0.2 NE 7 7 4 4 - - 0.0
 
Date/Time
EST
Temp
°C
App
Temp
°C
Dew
Point
°C
Rel
Hum
%
Delta-T
°C
Wind Press
QNH
hPa
Press
MSL
hPa
Rain since
9am
mm
Dir  Spd
km/h
Gust
km/h
Spd
kts
Gust
kts
30/11:50pm -0.2 -3.4 -0.7 96 0.2 NE 6 7 3 4 - - 0.0
30/11:40pm -0.2 -3.6 -0.8 96 0.2 NE 7 7 4 4 - - 0.0
30/11:30pm -0.1 -3.5 -0.8 95 0.3 NE 7 7 4 4 - - 0.0
30/11:20pm 0.4 -2.8 -0.3 95 0.3 NE 6 6 3 3 - - 0.0
30/11:10pm 0.3 -2.9 -0.4 95 0.3 NE 6 7 3 4 - - 0.0
30/11:00pm 1.3 -1.5 -0.1 90 0.5 E 4 6 2 3 - - 0.0
30/10:50pm 1.0 -2.3 0.3 95 0.3 NE 7 9 4 5 - - 0.0
30/10:40pm 1.2 -2.1 0.3 94 0.3 NE 7 9 4 5 - - 0.0
30/10:30pm 1.3 -2.3 0.5 94 0.3 NE 9 11 5 6 - - 0.0
30/10:20pm 0.8 -2.9 0.2 96 0.2 NE 9 11 5 6 - - 0.0
30/10:10pm 0.5 -2.7 -0.3 94 0.3 NE 6 6 3 3 - - 0.0
30/10:00pm 1.1 -1.7 -0.2 91 0.5 ENE 4 6 2 3 - - 0.0
30/09:50pm 1.0 -2.3 0.4 96 0.2 NE 7 7 4 4 - - 0.0
30/09:40pm 0.6 -3.1 -0.1 95 0.3 NE 9 11 5 6 - - 0.0
30/09:30pm 0.5 -3.2 0.0 96 0.2 NE 9 9 5 5 - - 0.0
30/09:20pm 0.5 -2.7 -0.2 95 0.3 NE 6 7 3 4 - - 0.0
30/09:10pm 0.7 -1.6 0.1 96 0.2 N 2 4 1 2 - - 0.0
30/09:00pm 0.8 -1.6 -0.4 92 0.5 ENE 2 6 1 3 - - 0.0
30/08:50pm 1.7 -1.5 0.9 94 0.3 S 7 9 4 5 - - 0.0
30/08:40pm 1.8 -0.8 0.8 93 0.4 SE 4 6 2 3 - - 0.0
30/08:30pm 2.1 -0.9 0.8 91 0.5 E 6 7 3 4 - - 0.0
30/08:20pm 2.9 -0.2 1.5 90 0.6 ENE 7 9 4 5 - - 0.0
30/08:10pm 3.1 -0.3 1.6 90 0.6 ENE 9 9 5 5 - - 0.0
30/08:00pm 2.5 -0.5 1.7 94 0.3 ENE 7 9 4 5 - - 0.0
30/07:50pm 1.8 -1.1 1.4 97 0.2 NE 6 7 3 4 - - 0.0
30/07:40pm 2.1 -0.5 0.8 91 0.5 N 4 6 2 3 - - 0.0
30/07:30pm 3.5 1.5 2.5 93 0.4 E 2 4 1 2 - - 0.0
30/07:20pm 3.8 1.0 2.3 90 0.6 ENE 6 7 3 4 - - 0.0
30/07:10pm 5.1 1.8 2.3 82 1.2 E 9 11 5 6 - - 0.0
30/07:00pm 4.8 1.9 2.7 86 0.9 ESE 7 11 4 6 - - 0.0
30/06:50pm 4.8 2.5 2.8 87 0.9 ENE 4 7 2 4 - - 0.0
30/06:40pm 5.0 2.7 2.8 86 0.9 ENE 4 7 2 4 - - 0.0
30/06:30pm 5.0 2.1 2.8 86 0.9 ENE 7 9 4 5 - - 0.0
30/06:20pm 4.6 1.7 2.5 86 0.9 ENE 7 9 4 5 - - 0.0
30/06:10pm 4.7 1.7 2.3 84 1.0 ENE 7 9 4 5 - - 0.0
30/06:00pm 4.9 2.0 2.5 84 1.0 ENE 7 7 4 4 - - 0.0
30/05:50pm 5.3 2.4 2.8 84 1.1 ENE 7 9 4 5 - - 0.0
30/05:40pm 6.8 3.3 3.3 78 1.5 ENE 11 13 6 7 - - 0.0
30/05:30pm 6.9 3.6 2.5 73 1.9 ENE 9 13 5 7 - - 0.0
30/05:20pm 7.3 4.5 3.1 75 1.9 E 7 11 4 6 - - 0.0
30/05:10pm 7.4 5.1 4.6 82 1.3 NE 6 6 3 3 - - 0.0
30/05:00pm 8.0 5.7 4.6 79 1.6 ENE 6 6 3 3 - - 0.0
30/04:50pm 8.3 5.9 4.3 76 1.8 NE 6 7 3 4 - - 0.0
30/04:40pm 8.7 6.7 4.4 74 2.0 ENE 4 6 2 3 - - 0.0
30/04:30pm 9.1 7.1 4.2 71 2.2 NE 4 4 2 2 - - 0.0
30/04:20pm 9.4 7.3 4.0 69 2.5 N 4 4 2 2 - - 0.0
30/04:10pm 9.7 7.2 3.7 66 2.7 NE 6 7 3 4 - - 0.0
30/04:00pm 10.1 7.4 3.7 64 2.9 NE 7 7 4 4 - - 0.0
30/03:50pm 10.5 7.9 3.3 61 3.3 NNE 6 6 3 3 - - 0.0
30/03:40pm 10.9 8.7 3.1 58 3.5 N 4 6 2 3 - - 0.0
30/03:30pm 11.1 8.8 2.6 56 3.8 NW 4 6 2 3 - - 0.0
30/03:20pm 11.4 9.3 3.9 60 3.5 WNW 4 6 2 3 - - 0.0
30/03:10pm 11.6 9.4 3.5 57 3.7 WSW 4 4 2 2 - - 0.0
30/03:00pm 11.8 9.2 3.3 56 3.9 WSW 6 7 3 4 - - 0.0
30/02:50pm 12.2 9.7 3.8 56 3.9 WSW 6 9 3 5 - - 0.0
30/02:40pm 12.5 10.0 3.6 54 4.1 SSW 6 7 3 4 - - 0.0
30/02:30pm 12.3 10.1 3.3 54 4.2 SW 4 6 2 3 - - 0.0
30/02:20pm 12.2 9.8 2.1 50 4.5 WNW 4 6 2 3 - - 0.0
30/02:10pm 12.4 9.8 3.3 54 4.2 W 6 6 3 3 - - 0.0
30/02:00pm 12.4 9.2 3.2 53 4.2 WSW 9 11 5 6 - - 0.0
30/01:50pm 12.8 9.7 3.4 53 4.4 WNW 9 13 5 7 - - 0.0
30/01:40pm 13.3 10.5 2.3 47 5.0 NNW 6 11 3 6 - - 0.0
30/01:30pm 13.4 10.6 2.3 47 5.1 WNW 6 9 3 5 - - 0.0
30/01:20pm 13.3 9.9 1.6 45 5.3 N 9 11 5 6 - - 0.0
30/01:10pm 13.8 11.1 2.5 46 5.2 N 6 9 3 5 - - 0.0
30/01:00pm 13.5 10.7 3.0 49 4.9 SW 7 11 4 6 - - 0.0
30/12:50pm 13.1 10.2 2.4 48 4.9 NNW 7 9 4 5 - - 0.0
30/12:40pm 13.2 10.5 2.4 48 4.9 NNW 6 9 3 5 - - 0.0
30/12:30pm 12.9 10.1 2.3 48 4.8 WNW 6 6 3 3 - - 0.0
30/12:20pm 12.7 10.6 2.0 48 4.8 W 2 4 1 2 - - 0.0
30/12:10pm 12.7 10.3 2.0 48 4.8 SSW 4 6 2 3 - - 0.0
30/12:00pm 12.7 10.3 2.2 49 4.8 S 4 7 2 4 - - 0.0
30/11:50am 12.5 9.6 2.4 50 4.6 SE 7 9 4 5 - - 0.0
30/11:40am 12.0 9.3 2.7 53 4.2 SE 6 11 3 6 - - 0.0
30/11:30am 12.2 9.5 3.6 55 4.0 SE 7 11 4 6 - - 0.0
30/11:20am 12.2 10.1 4.0 57 3.8 S 4 9 2 5 - - 0.0
30/11:10am 11.5 9.4 3.8 59 3.6 S 4 6 2 3 - - 0.0
30/11:00am 10.8 9.2 4.3 64 3.0 SW 2 4 1 2 - - 0.0
30/10:50am 9.7 7.6 3.9 67 2.7 WSW 4 6 2 3 - - 0.0
30/10:40am 10.1 8.0 4.1 66 2.8 WSW 4 6 2 3 - - 0.0
30/10:30am 9.6 7.5 3.9 67 2.6 S 4 6 2 3 - - 0.0
30/10:20am 8.6 6.6 4.5 75 1.9 SW 4 4 2 2 - - 0.0
30/10:10am 8.0 5.6 4.2 77 1.7 SW 6 6 3 3 - - 0.0
30/10:00am 8.2 6.3 4.8 79 1.6 SSW 4 6 2 3 - - 0.0
30/09:50am 8.4 6.8 4.7 77 1.7 S 2 4 1 2 - - 0.0
30/09:40am 7.7 6.1 4.6 81 1.4 WSW 2 2 1 1 - - 0.0
30/09:30am 7.1 5.5 4.3 82 1.3 NE 2 4 1 2 - - 0.0
30/09:20am 6.2 4.6 4.4 88 0.8 SW 2 4 1 2 - - 0.0
30/09:10am 5.6 3.6 4.4 92 0.5 SSW 4 6 2 3 - - 0.0
30/09:00am 5.1 3.4 4.1 93 0.4 WSW 2 4 1 2 - - 0.0
30/08:50am 5.0 3.3 4.2 95 0.4 ESE 2 2 1 1 - - 0.0
30/08:40am 4.5 2.8 4.1 97 0.2 NE 2 4 1 2 - - 0.0
30/08:30am 4.1 2.3 3.6 97 0.2 NE 2 4 1 2 - - 0.0
30/08:20am 3.7 1.5 3.2 97 0.2 E 4 4 2 2 - - 0.0
30/08:10am 3.4 1.1 2.9 97 0.2 N 4 4 2 2 - - 0.0
30/08:00am 3.4 1.5 2.9 97 0.2 NW 2 4 1 2 - - 0.0
30/07:50am 3.6 1.0 3.2 97 0.2 E 6 7 3 4 - - 0.0
30/07:40am 2.9 0.6 2.6 98 0.1 ENE 4 4 2 2 - - 0.0
30/07:30am 2.3 -0.1 1.9 97 0.2 NNE 4 6 2 3 - - 0.0
30/07:20am 2.3 -0.1 1.9 97 0.2 N 4 6 2 3 - - 0.0
30/07:10am 2.8 0.8 2.5 98 0.1 E 2 2 1 1 - - 0.0
30/07:00am 2.6 0.2 2.2 97 0.2 NE 4 4 2 2 - - 0.0
30/06:50am 2.7 0.3 2.3 97 0.2 NE 4 6 2 3 - - 0.0
30/06:40am 2.6 -0.2 2.1 96 0.2 NNE 6 6 3 3 - - 0.0
30/06:30am 2.8 0.8 2.2 96 0.2 ENE 2 4 1 2 - - 0.0
30/06:20am 3.1 0.4 2.6 96 0.2 S 6 7 3 4 - - 0.0
30/06:10am 3.2 0.5 2.6 96 0.3 SW 6 7 3 4 - - 0.0
30/06:00am 3.2 1.3 2.6 96 0.3 NW 2 4 1 2 - - 0.0
30/05:50am 3.2 1.2 2.5 95 0.3 NNW 2 4 1 2 - - 0.0
30/05:40am 3.5 1.2 2.8 95 0.3 S 4 4 2 2 - - 0.0
30/05:30am 3.5 1.6 2.8 95 0.3 E 2 4 1 2 - - 0.0
30/05:20am 3.7 1.8 2.7 93 0.4 E 2 4 1 2 - - 0.0
30/05:10am 4.1 2.3 3.2 94 0.4 E 2 2 1 1 - - 0.0
30/05:00am 4.1 2.2 3.1 93 0.4 ENE 2 4 1 2 - - 0.0
30/04:50am 4.2 2.3 3.1 92 0.5 ESE 2 4 1 2 - - 0.0
30/04:40am 4.6 2.7 3.1 90 0.6 S 2 4 1 2 - - 0.0
30/04:30am 4.9 3.1 3.4 90 0.7 NE 2 2 1 1 - - 0.0
30/04:20am 5.0 2.8 3.1 87 0.8 N 4 6 2 3 - - 0.0
30/04:10am 4.8 2.2 3.1 89 0.7 NE 6 6 3 3 - - 0.0
30/04:00am 4.9 3.1 3.2 89 0.7 - 2 4 1 2 - - 0.0
30/03:50am 4.8 3.0 3.2 89 0.7 S 2 4 1 2 - - 0.0
30/03:40am 4.8 3.0 3.3 90 0.6 S 2 4 1 2 - - 0.0
30/03:30am 5.3 3.5 3.5 88 0.8 SE 2 2 1 1 - - 0.0
30/03:20am 6.1 3.9 3.3 82 1.2 W 4 6 2 3 - - 0.0
30/03:10am 6.2 3.0 3.0 80 1.4 WNW 9 9 5 5 - - 0.0
30/03:00am 5.8 3.1 2.9 82 1.3 WNW 6 11 3 6 - - 0.0
30/02:50am 5.8 3.6 3.3 84 1.1 W 4 7 2 4 - - 0.0
30/02:40am 6.0 3.4 3.1 82 1.3 W 6 6 3 3 - - 0.0
30/02:30am 6.2 3.4 3.2 81 1.3 W 7 7 4 4 - - 0.0
30/02:20am 6.3 3.5 3.1 80 1.4 WNW 7 11 4 6 - - 0.0
30/02:10am 6.2 3.4 3.2 81 1.3 NW 7 9 4 5 - - 0.0
30/02:00am 6.4 3.6 3.2 80 1.4 NNW 7 9 4 5 - - 0.0
30/01:50am 6.5 3.7 3.2 79 1.4 NW 7 11 4 6 - - 0.0
30/01:40am 6.6 3.0 3.1 78 1.5 NW 11 15 6 8 - - 0.0
30/01:30am 6.6 3.0 3.2 79 1.5 NW 11 13 6 7 - - 0.0
30/01:20am 6.6 2.6 3.1 78 1.5 NW 13 15 7 8 - - 0.0
30/01:10am 6.4 2.4 3.0 79 1.5 NW 13 15 7 8 - - 0.0
30/01:00am 6.4 3.2 3.1 79 1.4 NW 9 11 5 6 - - 0.0
30/12:50am 6.4 2.8 3.0 79 1.5 WNW 11 13 6 7 - - 0.0
30/12:40am 6.4 2.8 3.0 79 1.5 WNW 11 15 6 8 - - 0.0
30/12:30am 6.3 2.7 2.9 79 1.5 WNW 11 13 6 7 - - 0.0
30/12:20am 6.2 2.6 2.9 79 1.4 WNW 11 11 6 6 - - 0.0
30/12:10am 6.4 2.8 2.9 78 1.5 W 11 13 6 7 - - 0.0
30/12:00am 6.5 3.3 2.9 78 1.6 W 9 11 5 6 - - 0.0
 
Date/Time
EST
Temp
°C
App
Temp
°C
Dew
Point
°C
Rel
Hum
%
Delta-T
°C
Wind Press
QNH
hPa
Press
MSL
hPa
Rain since
9am
mm
Dir  Spd
km/h
Gust
km/h
Spd
kts
Gust
kts
29/11:50pm 6.6 3.4 2.9 77 1.6 W 9 13 5 7 - - 0.0
29/11:40pm 6.7 3.1 3.0 77 1.6 WNW 11 13 6 7 - - 0.0
29/11:30pm 6.7 3.1 2.9 77 1.7 WNW 11 15 6 8 - - 0.0
29/11:20pm 6.6 3.0 2.9 77 1.6 WNW 11 13 6 7 - - 0.0
29/11:10pm 6.7 3.5 2.8 76 1.7 WNW 9 11 5 6 - - 0.0
29/11:00pm 6.6 3.0 2.8 77 1.7 WNW 11 13 6 7 - - 0.0
29/10:50pm 6.6 3.3 2.7 76 1.7 W 9 11 5 6 - - 0.0
29/10:40pm 6.5 3.2 2.7 77 1.6 WNW 9 13 5 7 - - 0.0
29/10:30pm 6.3 3.6 2.6 77 1.6 NW 6 7 3 4 - - 0.0
29/10:20pm 6.0 2.7 2.6 79 1.5 WNW 9 11 5 6 - - 0.0
29/10:10pm 5.5 1.9 2.7 82 1.2 NW 11 13 6 7 - - 0.0
29/10:00pm 5.1 1.1 2.7 84 1.0 NW 13 15 7 8 - - 0.0
29/09:50pm 4.5 0.5 2.7 88 0.8 NW 13 13 7 7 - - 0.0
29/09:40pm 4.9 2.0 2.6 85 1.0 NW 7 9 4 5 - - 0.0
29/09:30pm 5.2 2.3 2.7 84 1.1 NW 7 9 4 5 - - 0.0
29/09:20pm 5.6 2.7 2.8 82 1.2 NW 7 9 4 5 - - 0.0
29/09:10pm 5.6 2.4 2.8 82 1.2 WNW 9 11 5 6 - - 0.0
29/09:00pm 6.0 3.2 2.9 80 1.3 NW 7 9 4 5 - - 0.0
29/08:50pm 6.2 3.6 3.0 80 1.4 NW 6 9 3 5 - - 0.0
29/08:40pm 6.3 3.5 3.0 79 1.4 NW 7 9 4 5 - - 0.0
29/08:30pm 6.1 2.9 3.0 80 1.3 NW 9 11 5 6 - - 0.0
29/08:20pm 6.1 2.5 3.0 80 1.3 NW 11 13 6 7 - - 0.0
29/08:10pm 6.1 2.9 3.1 81 1.3 NW 9 9 5 5 - - 0.0
29/08:00pm 6.2 2.6 3.0 80 1.4 NW 11 13 6 7 - - 0.0
29/07:50pm 6.0 2.8 3.1 82 1.3 NW 9 13 5 7 - - 0.0
29/07:40pm 6.2 2.6 3.1 80 1.4 NW 11 11 6 6 - - 0.0
29/07:30pm 6.2 3.0 3.2 81 1.3 NW 9 13 5 7 - - 0.0
29/07:20pm 6.3 3.5 3.1 80 1.4 WNW 7 7 4 4 - - 0.0
29/07:10pm 6.4 2.8 3.1 79 1.4 WNW 11 13 6 7 - - 0.0
29/07:00pm 6.5 2.9 3.1 79 1.5 NW 11 13 6 7 - - 0.0
29/06:50pm 6.6 2.7 3.2 79 1.5 NW 13 15 7 8 - - 0.0
29/06:40pm 6.7 2.8 3.3 79 1.5 NW 13 15 7 8 - - 0.0
29/06:30pm 6.8 3.2 3.2 78 1.6 NW 11 13 6 7 - - 0.0
29/06:20pm 6.9 3.3 3.2 77 1.6 WNW 11 11 6 6 - - 0.0
29/06:10pm 7.0 3.1 3.3 77 1.6 WNW 13 15 7 8 - - 0.0
29/06:00pm 7.0 3.1 3.3 77 1.6 NW 13 17 7 9 - - 0.0
29/05:50pm 7.1 2.4 3.4 77 1.6 NW 17 19 9 10 - - 0.0
29/05:40pm 7.1 2.8 3.4 77 1.6 NW 15 20 8 11 - - 0.0
29/05:30pm 7.1 3.2 3.5 78 1.6 WNW 13 15 7 8 - - 0.0
29/05:20pm 7.3 3.4 3.5 77 1.7 WNW 13 19 7 10 - - 0.0
29/05:10pm 7.4 2.8 3.6 77 1.7 NW 17 24 9 13 - - 0.0
29/05:00pm 7.5 2.9 3.6 76 1.7 NW 17 20 9 11 - - 0.0
29/04:50pm 7.6 2.6 3.7 76 1.7 NW 19 20 10 11 - - 0.0
29/04:40pm 7.6 3.4 3.7 76 1.7 NW 15 19 8 10 - - 0.0
29/04:30pm 7.7 3.5 3.8 76 1.8 NW 15 17 8 9 - - 0.0
29/04:20pm 7.8 3.6 3.9 76 1.8 WNW 15 22 8 12 - - 0.0
29/04:10pm 7.9 3.3 3.9 76 1.8 WNW 17 20 9 11 - - 0.0
29/04:00pm 8.2 3.3 3.9 74 1.9 WNW 19 22 10 12 - - 0.0
29/03:50pm 8.7 4.1 3.8 71 2.2 NW 17 20 9 11 - - 0.0
29/03:40pm 9.0 4.0 3.8 70 2.4 WNW 19 24 10 13 - - 0.0
29/03:30pm 9.0 4.0 3.8 70 2.4 NW 19 24 10 13 - - 0.0
29/03:20pm 9.0 4.5 4.0 71 2.3 NW 17 24 9 13 - - 0.0
29/03:10pm 9.1 4.2 4.1 71 2.3 NW 19 24 10 13 - - 0.0
29/03:00pm 9.1 4.6 4.4 72 2.2 NW 17 22 9 12 - - 0.0
29/02:50pm 9.1 4.2 4.2 71 2.2 NW 19 24 10 13 - - 0.0
29/02:40pm 9.0 4.1 4.2 72 2.2 NW 19 22 10 12 - - 0.0
29/02:30pm 9.0 4.2 4.4 73 2.1 NW 19 24 10 13 - - 0.0
29/02:20pm 9.1 4.1 4.4 72 2.2 NW 20 28 11 15 - - 0.0
29/02:10pm 9.3 4.2 4.2 70 2.3 NW 20 24 11 13 - - 0.0
29/02:00pm 9.7 5.2 4.3 69 2.5 NW 17 20 9 11 - - 0.0
29/01:50pm 9.9 5.0 4.1 67 2.7 NW 19 24 10 13 - - 0.0
29/01:40pm 10.4 5.5 4.1 65 2.9 NW 19 22 10 12 - - 0.0
29/01:30pm 10.6 5.7 4.1 64 3.0 WNW 19 26 10 14 - - 0.0
29/01:20pm 11.1 6.9 4.0 61 3.3 NW 15 17 8 9 - - 0.0
29/01:10pm 11.1 6.6 4.0 61 3.3 WNW 17 19 9 10 - - 0.0
29/01:00pm 11.3 7.1 3.8 60 3.5 WNW 15 20 8 11 - - 0.0
29/12:50pm 11.0 6.8 3.6 60 3.4 WNW 15 19 8 10 - - 0.0
29/12:40pm 10.2 5.7 4.0 65 2.9 WNW 17 20 9 11 - - 0.0
29/12:30pm 9.9 4.9 3.7 65 2.8 WNW 19 20 10 11 - - 0.0
29/12:20pm 9.7 4.5 3.7 66 2.7 WNW 20 24 11 13 - - 0.0
29/12:10pm 9.6 4.7 4.0 68 2.6 WNW 19 24 10 13 - - 0.0
29/12:00pm 9.3 4.7 3.7 68 2.5 WNW 17 22 9 12 - - 0.0
29/11:50am 9.2 4.1 3.9 69 2.4 WNW 20 24 11 13 - - 0.0
29/11:40am 9.2 4.6 3.8 69 2.5 WNW 17 22 9 12 - - 0.0
29/11:30am 9.0 3.5 4.1 71 2.2 WNW 22 26 12 14 - - 0.0
29/11:20am 8.8 3.8 3.7 70 2.3 WNW 19 22 10 12 - - 0.0
29/11:10am 8.4 3.8 3.9 73 2.0 WNW 17 26 9 14 - - 0.0
29/11:00am 8.4 3.9 4.0 74 2.0 WNW 17 22 9 12 - - 0.0
29/10:50am 8.3 3.8 4.0 74 2.0 WNW 17 20 9 11 - - 0.0
29/10:40am 8.4 3.8 3.9 73 2.0 WNW 17 20 9 11 - - 0.0
29/10:30am 8.5 4.4 4.1 74 2.0 WNW 15 19 8 10 - - 0.0
29/10:20am 8.1 3.5 3.8 74 1.9 WNW 17 22 9 12 - - 0.0
29/10:10am 8.0 3.0 3.6 74 2.0 NW 19 22 10 12 - - 0.0
29/10:00am 7.5 2.6 3.9 78 1.6 WNW 19 24 10 13 - - 0.0
29/09:50am 7.0 2.8 3.7 79 1.5 WNW 15 22 8 12 - - 0.0
29/09:40am 5.3 3.2 3.7 89 0.7 W 4 7 2 4 - - 0.0
29/09:30am 3.7 1.0 2.7 93 0.4 SSW 6 6 3 3 - - 0.0
29/09:20am 2.4 -0.5 1.6 94 0.3 SSW 6 6 3 3 - - 0.0
29/09:10am 1.6 -1.4 1.0 96 0.2 SSW 6 9 3 5 - - 0.0
29/09:00am 1.1 -1.9 0.5 96 0.2 SSW 6 7 3 4 - - 0.2
29/08:50am 0.3 -2.9 -0.5 94 0.3 SSW 6 7 3 4 - - 0.2
29/08:40am 0.0 -2.9 -0.8 94 0.3 S 4 4 2 2 - - 0.2
29/08:30am -0.5 -3.0 -1.3 94 0.3 S 2 4 1 2 - - 0.0
29/08:20am -0.9 -3.5 -1.5 96 0.2 NE 2 2 1 1 - - 0.0
29/08:10am -1.3 -3.9 -2.0 95 0.2 NNW 2 2 1 1 - - 0.0
29/08:00am -2.1 -4.5 -2.9 94 0.2 CALM 0 2 0 1 - - 0.0
29/07:50am -3.1 -6.0 -3.9 94 0.1 W 2 2 1 1 - - 0.0
29/07:40am -3.3 -6.2 -3.9 96 0.1 NE 2 4 1 2 - - 0.0
29/07:30am -4.7 -7.7 -5.4 95 0.0 NE 2 4 1 2 - - 0.0
29/07:20am -4.8 -7.9 -5.9 92 0.1 N 2 4 1 2 - - 0.0
29/07:10am -4.2 -6.8 -4.8 96 0.0 CALM 0 2 0 1 - - 0.0
29/07:00am -4.3 -6.9 -5.0 95 0.0 CALM 0 2 0 1 - - 0.0
29/06:50am -4.4 -7.0 -5.0 96 0.0 CALM 0 2 0 1 - - 0.0
29/06:40am -4.6 -7.6 -5.5 93 0.1 NE 2 2 1 1 - - 0.0
29/06:30am -4.4 -7.0 -5.1 95 0.0 CALM 0 2 0 1 - - 0.0
29/06:20am -4.4 -7.4 -5.1 95 0.0 N 2 2 1 1 - - 0.0
29/06:10am -4.1 -7.1 -4.7 96 0.0 N 2 2 1 1 - - 0.0
29/06:00am -4.4 -7.4 -5.0 96 0.0 N 2 2 1 1 - - 0.0
29/05:50am -4.7 -7.3 -5.3 96 0.0 CALM 0 2 0 1 - - 0.0
29/05:40am -5.1 -8.2 -6.0 93 0.1 NW 2 4 1 2 - - 0.0
29/05:30am -5.1 -8.2 -5.9 94 0.0 NE 2 2 1 1 - - 0.0
29/05:20am -5.2 -8.3 -6.1 93 0.1 NNE 2 4 1 2 - - 0.0
29/05:10am -5.2 -8.3 -6.0 94 0.0 ENE 2 4 1 2 - - 0.0
29/05:00am -5.3 -8.8 -6.1 94 0.0 NE 4 4 2 2 - - 0.0
29/04:50am -5.1 -8.9 -5.9 94 0.0 NNE 6 6 3 3 - - 0.0
29/04:40am -5.2 -8.7 -6.1 93 0.1 NE 4 6 2 3 - - 0.0
29/04:30am -5.1 -8.6 -6.0 93 0.1 NE 4 4 2 2 - - 0.0
29/04:20am -4.6 -8.0 -5.4 94 0.1 NE 4 6 2 3 - - 0.0
29/04:10am -4.6 -7.6 -5.3 95 0.0 NE 2 2 1 1 - - 0.0
29/04:00am -4.4 -7.4 -5.0 96 0.0 NE 2 4 1 2 - - 0.0
29/03:50am -5.1 -8.6 -5.9 94 0.0 NNE 4 6 2 3 - - 0.0
29/03:40am -4.9 -8.0 -5.7 94 0.1 NE 2 6 1 3 - - 0.0
29/03:30am -4.5 -7.5 -5.2 95 0.0 SE 2 2 1 1 - - 0.0
29/03:20am -4.9 -8.0 -5.7 94 0.1 NE 2 2 1 1 - - 0.0
29/03:00am -4.5 -7.1 -5.2 95 0.0 CALM 0 2 0 1 - - 0.0
29/02:50am -4.3 -7.3 -5.0 95 0.0 ENE 2 4 1 2 - - 0.0
29/02:40am -4.6 -8.4 -5.3 95 0.0 NE 6 7 3 4 - - 0.0
29/02:30am -4.7 -8.5 -5.5 94 0.1 NE 6 7 3 4 - - 0.0
29/02:20am -4.7 -8.5 -5.5 94 0.1 NNE 6 6 3 3 - - 0.0
29/02:10am -4.3 -7.7 -5.2 93 0.1 NE 4 6 2 3 - - 0.0
29/02:00am -3.5 -6.8 -4.0 96 0.0 NE 4 4 2 2 - - 0.0
29/01:50am -3.4 -7.0 -3.9 96 0.0 ENE 6 6 3 3 - - 0.0
29/01:40am -4.5 -8.3 -5.3 94 0.1 NE 6 6 3 3 - - 0.0
29/01:30am -3.7 -6.6 -4.3 96 0.0 NE 2 6 1 3 - - 0.0
29/01:20am -3.9 -6.8 -4.6 95 0.1 N 2 2 1 1 - - 0.0
29/01:10am -3.5 -6.4 -4.0 96 0.0 S 2 2 1 1 - - 0.0
29/01:00am -3.7 -6.6 -4.2 96 0.0 NE 2 4 1 2 - - 0.0
29/12:50am -3.8 -7.1 -4.3 96 0.0 NNE 4 6 2 3 - - 0.0
29/12:40am -3.5 -6.8 -4.0 96 0.0 NE 4 6 2 3 - - 0.0
29/12:30am -4.1 -7.1 -4.7 96 0.0 N 2 4 1 2 - - 0.0
29/12:20am -3.7 -6.6 -4.2 96 0.0 S 2 4 1 2 - - 0.0
29/12:10am -3.2 -6.4 -3.6 97 0.0 S 4 4 2 2 - - 0.0
29/12:00am -3.5 -6.4 -4.0 96 0.0 NE 2 6 1 3 - - 0.0
 
Date/Time
EST
Temp
°C
App
Temp
°C
Dew
Point
°C
Rel
Hum
%
Delta-T
°C
Wind Press
QNH
hPa
Press
MSL
hPa
Rain since
9am
mm
Dir  Spd
km/h
Gust
km/h
Spd
kts
Gust
kts
28/11:50pm -3.8 -7.7 -4.4 96 0.0 NE 7 9 4 5 - - 0.0
28/11:40pm -3.8 -7.5 -4.4 96 0.0 NE 6 7 3 4 - - 0.0
28/11:30pm -3.9 -7.6 -4.5 96 0.0 NNE 6 7 3 4 - - 0.0
28/11:20pm -3.8 -7.1 -4.4 96 0.0 NNE 4 6 2 3 - - 0.0
28/11:10pm -3.4 -5.9 -3.9 96 0.0 CALM 0 2 0 1 - - 0.0
28/11:00pm -3.3 -6.2 -3.8 96 0.0 SW 2 2 1 1 - - 0.0
28/10:50pm -3.4 -6.3 -3.8 97 0.0 SE 2 4 1 2 - - 0.0
28/10:40pm -3.4 -7.0 -3.9 96 0.0 NE 6 7 3 4 - - 0.0
28/10:30pm -3.9 -7.6 -4.5 96 0.0 NE 6 6 3 3 - - 0.0
28/10:20pm -3.6 -7.3 -4.2 96 0.0 NE 6 7 3 4 - - 0.0
28/10:10pm -3.7 -7.6 -4.2 96 0.0 NE 7 7 4 4 - - 0.0
28/10:00pm -3.7 -7.0 -4.3 96 0.0 NE 4 4 2 2 - - 0.0
28/09:50pm -3.7 -7.0 -4.4 95 0.1 NNE 4 6 2 3 - - 0.0
28/09:40pm -3.2 -6.1 -3.8 96 0.1 E 2 2 1 1 - - 0.0
28/09:30pm -3.3 -6.2 -3.9 96 0.1 ENE 2 4 1 2 - - 0.0
28/09:20pm -3.3 -6.6 -4.0 95 0.1 NE 4 4 2 2 - - 0.0
28/09:10pm -2.6 -6.1 -3.1 96 0.1 NE 6 6 3 3 - - 0.0
28/09:00pm -3.3 -6.9 -3.9 96 0.1 NE 6 7 3 4 - - 0.0
28/08:50pm -3.5 -7.2 -4.2 95 0.1 NE 6 7 3 4 - - 0.0
28/08:40pm -3.3 -7.5 -3.9 96 0.1 NE 9 9 5 5 - - 0.0
28/08:30pm -3.2 -7.0 -3.9 95 0.1 NE 7 9 4 5 - - 0.0
28/08:20pm -3.1 -6.9 -3.7 96 0.1 NE 7 7 4 4 - - 0.0
28/08:10pm -3.3 -6.9 -4.0 95 0.1 NE 6 6 3 3 - - 0.0
28/08:00pm -3.2 -6.8 -3.9 95 0.1 NE 6 6 3 3 - - 0.0
28/07:50pm -3.0 -6.2 -3.7 95 0.1 NNE 4 6 2 3 - - 0.0
28/07:40pm -2.6 -5.4 -3.3 95 0.1 SE 2 4 1 2 - - 0.0
28/07:30pm -2.6 -6.1 -3.2 96 0.1 NE 6 7 3 4 - - 0.0
28/07:20pm -2.7 -5.9 -3.5 94 0.2 ENE 4 6 2 3 - - 0.0
28/07:10pm -2.3 -5.5 -3.1 94 0.2 NE 4 4 2 2 - - 0.0
28/07:00pm -1.9 -5.0 -2.6 95 0.2 NE 4 6 2 3 - - 0.0
28/06:50pm -1.9 -5.4 -3.0 92 0.3 NE 6 6 3 3 - - 0.0
28/06:40pm -1.3 -4.3 -2.2 94 0.3 ENE 4 4 2 2 - - 0.0
28/06:30pm -1.3 -4.3 -2.2 94 0.3 ENE 4 4 2 2 - - 0.0
28/06:20pm -0.5 -3.9 -2.0 90 0.5 NE 6 6 3 3 - - 0.0
28/06:10pm 0.2 -3.1 -1.0 92 0.5 NE 6 7 3 4 - - 0.0
28/06:00pm 1.5 -1.9 -0.6 86 0.8 NE 7 7 4 4 - - 0.0
28/05:50pm 0.9 -2.4 0.0 94 0.3 ENE 7 9 4 5 - - 0.0

Other formats

Comma delimited format used in spreadsheet applications
http://www.bom.gov.au/fwo/IDN60801/IDN60801.99764.axf

JavaScript Object Notation format (JSON) in row-major order
http://www.bom.gov.au/fwo/IDN60801/IDN60801.99764.json

Data quality

Most of these data are generated automatically and are frequently updated. Quality checks on data are not normally performed. It is possible for incorrect values to appear. Refer to information at About Latest Weather Observations and please check the disclaimer before using these data.